createdAt,value
2019-03-06T00:00:10.826Z,6.37
2019-03-06T00:02:41.378Z,6.17
2019-03-06T00:05:11.850Z,6.33
2019-03-06T00:07:42.076Z,5.73
2019-03-06T00:10:27.017Z,7.13
2019-03-06T00:12:57.663Z,6.90
2019-03-06T00:15:27.888Z,6.40
2019-03-06T00:17:58.106Z,6.17
2019-03-06T00:20:28.191Z,7.23
2019-03-06T00:22:58.274Z,7.40
2019-03-06T00:25:28.279Z,6.27
2019-03-06T00:27:58.341Z,6.80
2019-03-06T00:30:28.820Z,6.97
2019-03-06T00:32:59.394Z,6.00
2019-03-06T00:35:33.235Z,6.20
2019-03-06T00:38:03.346Z,6.97
2019-03-06T00:40:58.855Z,7.03
2019-03-06T00:43:29.058Z,6.70
2019-03-06T00:45:59.378Z,6.63
2019-03-06T00:48:29.607Z,6.03
2019-03-06T00:50:59.778Z,5.83
2019-03-06T00:53:30.040Z,6.87
2019-03-06T00:56:00.120Z,6.87
2019-03-06T00:58:30.206Z,6.30
2019-03-06T01:01:00.237Z,8.03
2019-03-06T01:03:30.354Z,6.70
2019-03-06T01:06:00.583Z,7.67
2019-03-06T01:08:31.306Z,6.50
2019-03-06T01:11:01.458Z,6.63
2019-03-06T01:13:31.827Z,7.60
2019-03-06T01:16:02.051Z,8.60
2019-03-06T01:18:32.402Z,7.60
2019-03-06T01:21:02.522Z,7.57
2019-03-06T01:23:32.544Z,6.93
2019-03-06T01:26:02.885Z,7.87
2019-03-06T01:28:33.106Z,7.30
2019-03-06T01:31:03.274Z,7.57
2019-03-06T01:33:47.584Z,6.90
2019-03-06T01:36:39.565Z,6.87
2019-03-06T01:39:27.193Z,7.93
2019-03-06T01:42:25.558Z,8.10
2019-03-06T01:44:58.910Z,7.57
2019-03-06T01:47:29.547Z,7.23
2019-03-06T01:49:59.658Z,6.17
2019-03-06T01:52:30.107Z,7.80
2019-03-06T01:55:00.518Z,6.97
2019-03-06T01:57:30.579Z,6.97
2019-03-06T02:00:00.726Z,7.40
2019-03-06T02:02:31.802Z,6.60
2019-03-06T02:05:02.290Z,6.87
2019-03-06T02:07:33.050Z,7.00
2019-03-06T02:10:03.128Z,7.40
2019-03-06T02:12:33.326Z,7.40
2019-03-06T02:15:03.755Z,7.10
2019-03-06T02:17:34.118Z,7.20
2019-03-06T02:20:04.450Z,7.07
2019-03-06T02:22:34.542Z,7.50
2019-03-06T02:25:04.860Z,6.93
2019-03-06T02:27:35.626Z,7.30
2019-03-06T02:30:08.083Z,6.20
2019-03-06T02:32:38.252Z,7.50
2019-03-06T02:35:08.824Z,7.20
2019-03-06T02:37:39.046Z,6.20
2019-03-06T02:40:09.348Z,6.40
2019-03-06T02:42:39.750Z,7.40
2019-03-06T02:45:11.501Z,6.47
2019-03-06T02:47:42.236Z,7.07
2019-03-06T02:50:13.164Z,6.90
2019-03-06T02:52:43.669Z,8.20
2019-03-06T02:55:14.371Z,8.47
2019-03-06T02:57:51.368Z,7.50
2019-03-06T03:00:59.636Z,8.17
2019-03-06T03:03:47.230Z,6.90
2019-03-06T03:06:28.983Z,7.50
2019-03-06T03:08:59.463Z,7.30
2019-03-06T03:11:29.517Z,8.17
2019-03-06T03:13:59.751Z,8.00
2019-03-06T03:16:30.355Z,8.83
2019-03-06T03:19:00.611Z,6.90
2019-03-06T03:21:31.210Z,10.83
2019-03-06T03:24:01.675Z,8.93
2019-03-06T03:26:31.934Z,10.97
2019-03-06T03:29:01.968Z,9.97
2019-03-06T03:31:32.344Z,11.27
2019-03-06T03:34:02.505Z,10.10
2019-03-06T03:36:33.115Z,8.90
2019-03-06T03:39:04.639Z,7.83
2019-03-06T03:41:34.836Z,8.90
2019-03-06T03:44:05.230Z,8.97
2019-03-06T03:46:35.432Z,10.40
2019-03-06T03:49:05.594Z,7.63
2019-03-06T03:51:35.862Z,8.47
2019-03-06T03:54:06.491Z,8.43
2019-03-06T03:56:36.630Z,8.37
2019-03-06T03:59:07.132Z,8.10
2019-03-06T04:01:37.248Z,8.60
2019-03-06T04:04:07.289Z,9.33
2019-03-06T04:06:37.599Z,7.83
2019-03-06T04:09:08.193Z,7.73
2019-03-06T04:11:38.879Z,8.63
2019-03-06T04:14:11.908Z,10.00
2019-03-06T04:16:42.461Z,8.57
2019-03-06T04:19:12.498Z,9.60
2019-03-06T04:21:42.513Z,8.50
2019-03-06T04:24:12.837Z,9.13
2019-03-06T04:26:43.919Z,8.30
2019-03-06T04:29:13.926Z,9.67
2019-03-06T04:31:43.978Z,9.40
2019-03-06T04:34:14.304Z,9.43
2019-03-06T04:36:44.521Z,9.40
2019-03-06T04:39:14.498Z,9.07
2019-03-06T04:41:44.627Z,9.17
2019-03-06T04:46:56.183Z,9.30
2019-03-06T04:49:26.389Z,9.77
2019-03-06T04:51:56.866Z,8.83
2019-03-06T04:54:26.883Z,8.80
2019-03-06T04:56:57.337Z,9.13
2019-03-06T04:59:27.381Z,8.90
2019-03-06T05:01:57.454Z,9.47
2019-03-06T05:04:27.539Z,9.47
2019-03-06T05:06:57.563Z,9.70
2019-03-06T05:09:27.723Z,9.40
2019-03-06T05:11:58.370Z,10.23
2019-03-06T05:14:28.443Z,10.13
2019-03-06T05:17:10.262Z,10.77
2019-03-06T05:19:40.774Z,10.40
2019-03-06T05:22:10.799Z,9.70
2019-03-06T05:24:40.921Z,9.80
2019-03-06T05:27:10.911Z,11.80
2019-03-06T05:29:41.383Z,10.30
2019-03-06T05:32:29.662Z,10.10
2019-03-06T05:35:01.489Z,9.07
2019-03-06T05:37:47.654Z,10.50
2019-03-06T05:40:17.980Z,9.87
2019-03-06T05:42:48.506Z,10.50
2019-03-06T05:45:18.565Z,11.07
2019-03-06T05:47:48.534Z,10.60
2019-03-06T05:50:20.263Z,9.93
2019-03-06T05:52:50.475Z,10.60
2019-03-06T05:55:20.613Z,10.43
2019-03-06T05:57:51.239Z,11.10
2019-03-06T06:00:23.023Z,9.97
2019-03-06T06:02:53.066Z,10.43
2019-03-06T06:05:23.499Z,10.40
2019-03-06T06:07:53.927Z,10.23
2019-03-06T06:10:24.128Z,10.83
2019-03-06T06:12:54.263Z,10.90
2019-03-06T06:15:24.277Z,12.00
2019-03-06T06:17:54.282Z,10.60
2019-03-06T06:20:25.103Z,9.97
2019-03-06T06:23:06.790Z,10.67
2019-03-06T06:25:37.111Z,10.10
2019-03-06T06:28:07.236Z,9.03
2019-03-06T06:30:37.601Z,11.20
2019-03-06T06:33:07.971Z,10.93
2019-03-06T06:35:38.061Z,10.60
2019-03-06T06:38:08.076Z,11.07
2019-03-06T06:40:38.540Z,9.90
2019-03-06T06:43:08.640Z,11.63
2019-03-06T06:45:38.659Z,9.80
2019-03-06T06:48:19.420Z,11.60
2019-03-06T06:51:11.768Z,10.20
2019-03-06T06:53:55.390Z,13.13
2019-03-06T06:57:15.511Z,12.60
2019-03-06T07:00:12.401Z,12.70
2019-03-06T07:03:29.560Z,11.80
2019-03-06T07:06:08.904Z,11.80
2019-03-06T07:08:50.226Z,12.20
2019-03-06T07:11:37.916Z,10.80
2019-03-06T07:14:36.330Z,11.73
2019-03-06T07:17:25.432Z,11.30
2019-03-06T07:20:20.722Z,11.17
2019-03-06T07:22:57.514Z,11.53
2019-03-06T07:25:55.874Z,11.07
2019-03-06T07:28:44.772Z,11.10
2019-03-06T07:31:43.040Z,11.60
2019-03-06T07:34:47.310Z,11.27
2019-03-06T07:37:28.843Z,11.27
2019-03-06T07:40:01.919Z,10.27
2019-03-06T07:42:49.622Z,10.70
2019-03-06T07:45:57.552Z,11.60
2019-03-06T07:48:56.946Z,10.93
2019-03-06T07:51:42.108Z,11.23
2019-03-06T07:54:39.977Z,10.10
2019-03-06T07:57:37.669Z,11.30
2019-03-06T08:00:33.282Z,13.70
2019-03-06T08:03:10.420Z,11.23
2019-03-06T08:05:40.805Z,10.50
2019-03-06T08:08:11.197Z,11.17
2019-03-06T08:10:41.716Z,10.50
2019-03-06T08:13:30.272Z,10.80
2019-03-06T08:16:15.401Z,11.87
2019-03-06T08:19:02.110Z,12.13
2019-03-06T08:21:38.901Z,10.73
2019-03-06T08:24:19.120Z,10.47
2019-03-06T08:26:49.289Z,10.43
2019-03-06T08:29:20.548Z,9.90
2019-03-06T08:31:56.524Z,11.00
2019-03-06T08:34:26.835Z,10.70
2019-03-06T08:36:56.772Z,12.47
2019-03-06T08:39:26.786Z,11.07
2019-03-06T08:41:56.836Z,10.13
2019-03-06T08:44:26.879Z,12.70
2019-03-06T08:47:28.509Z,11.60
2019-03-06T08:50:08.788Z,11.87
2019-03-06T08:52:52.500Z,11.70
2019-03-06T08:55:35.971Z,12.27
2019-03-06T08:58:23.398Z,11.20
2019-03-06T09:01:13.196Z,12.10
2019-03-06T09:04:14.663Z,10.93
2019-03-06T09:07:16.302Z,10.70
2019-03-06T09:10:07.150Z,9.70
2019-03-06T09:13:11.123Z,9.27
2019-03-06T09:15:55.492Z,10.03
2019-03-06T09:18:43.112Z,9.60
2019-03-06T09:21:30.957Z,8.80
2019-03-06T09:24:38.416Z,8.20
2019-03-06T09:27:18.212Z,8.80
2019-03-06T09:30:02.071Z,9.23
2019-03-06T09:32:44.788Z,9.40
2019-03-06T09:35:49.465Z,9.23
2019-03-06T09:38:44.983Z,8.17
2019-03-06T09:41:33.718Z,10.23
2019-03-06T09:44:35.341Z,8.57
2019-03-06T09:47:16.228Z,8.10
2019-03-06T09:50:08.382Z,8.90
2019-03-06T09:52:58.186Z,8.53
2019-03-06T09:55:47.771Z,9.23
2019-03-06T09:58:34.595Z,8.23
2019-03-06T10:01:29.738Z,8.53
2019-03-06T10:04:33.821Z,8.60
2019-03-06T10:07:31.886Z,7.93
2019-03-06T10:10:21.128Z,8.00
2019-03-06T10:13:05.958Z,7.00
2019-03-06T10:16:01.064Z,7.80
2019-03-06T10:18:59.702Z,8.33
2019-03-06T10:21:30.537Z,8.00
2019-03-06T10:24:00.813Z,7.93
2019-03-06T10:26:30.912Z,7.30
2019-03-06T10:29:01.433Z,8.33
2019-03-06T10:31:31.573Z,8.00
2019-03-06T10:34:01.699Z,9.43
2019-03-06T10:36:32.708Z,8.30
2019-03-06T10:39:04.905Z,8.20
2019-03-06T10:41:34.934Z,8.90
2019-03-06T10:44:05.792Z,8.30
2019-03-06T10:46:35.806Z,7.33
2019-03-06T10:49:06.654Z,8.17
2019-03-06T10:51:36.653Z,8.50
2019-03-06T10:54:06.900Z,7.20
2019-03-06T10:56:37.537Z,8.07
2019-03-06T10:59:12.233Z,8.87
2019-03-06T11:01:42.400Z,8.20
2019-03-06T11:04:31.453Z,8.00
2019-03-06T11:07:01.899Z,7.80
2019-03-06T11:09:32.624Z,8.50
2019-03-06T11:12:03.297Z,8.70
2019-03-06T11:14:34.394Z,8.23
2019-03-06T11:17:05.641Z,9.03
2019-03-06T11:19:37.293Z,10.20
2019-03-06T11:22:14.413Z,10.03
2019-03-06T11:24:44.803Z,10.47
2019-03-06T11:27:17.059Z,10.33
2019-03-06T11:29:53.344Z,10.37
2019-03-06T11:32:26.606Z,9.50
2019-03-06T11:34:57.124Z,8.97
2019-03-06T11:37:27.693Z,9.07
2019-03-06T11:39:57.696Z,8.70
2019-03-06T11:42:27.825Z,8.60
2019-03-06T11:44:57.897Z,8.67
2019-03-06T11:47:28.208Z,8.33
2019-03-06T11:49:58.335Z,8.07
2019-03-06T11:52:28.558Z,8.37
2019-03-06T11:55:05.932Z,9.30
2019-03-06T11:57:30.760Z,8.40
2019-03-06T12:00:01.888Z,9.87
2019-03-06T12:02:32.096Z,9.40
2019-03-06T12:05:03.481Z,9.83
2019-03-06T12:07:33.476Z,9.00
2019-03-06T12:10:04.538Z,8.20
2019-03-06T12:12:34.713Z,8.30
2019-03-06T12:15:05.485Z,9.63
2019-03-06T12:17:35.889Z,8.20
2019-03-06T12:20:08.416Z,8.30
2019-03-06T12:22:39.207Z,8.23
2019-03-06T12:25:10.267Z,7.40
2019-03-06T12:27:40.647Z,7.17
2019-03-06T12:30:12.223Z,8.57
2019-03-06T12:32:43.127Z,7.40
2019-03-06T12:35:14.504Z,8.10
2019-03-06T12:37:47.174Z,7.70
2019-03-06T12:40:21.329Z,6.43
2019-03-06T12:42:51.921Z,6.10
2019-03-06T12:45:22.643Z,6.70
2019-03-06T12:47:55.674Z,5.90
2019-03-06T12:50:25.373Z,6.60
2019-03-06T12:52:55.703Z,6.60
2019-03-06T12:55:26.298Z,6.70
2019-03-06T12:57:59.589Z,7.70
2019-03-06T13:00:28.747Z,6.37
2019-03-06T13:02:59.177Z,7.20
2019-03-06T13:05:29.797Z,7.40
2019-03-06T13:08:00.730Z,6.90
2019-03-06T13:10:31.200Z,7.07
2019-03-06T13:13:01.176Z,6.83
2019-03-06T13:15:31.612Z,7.13
2019-03-06T13:18:01.742Z,7.17
2019-03-06T13:20:31.901Z,6.70
2019-03-06T13:23:03.965Z,6.90
2019-03-06T13:25:33.586Z,8.00
2019-03-06T13:28:04.865Z,9.27
2019-03-06T13:30:35.788Z,9.10
2019-03-06T13:33:15.289Z,10.47
2019-03-06T13:35:45.889Z,9.30
2019-03-06T13:38:16.511Z,8.90
2019-03-06T13:40:46.826Z,10.00
2019-03-06T13:43:17.030Z,7.30
2019-03-06T13:45:47.508Z,14.90
2019-03-06T13:48:18.006Z,7.00
2019-03-06T13:50:48.136Z,12.97
2019-03-06T13:53:20.518Z,8.90
2019-03-06T13:55:50.761Z,6.57
2019-03-06T13:58:21.627Z,7.80
2019-03-06T14:00:51.657Z,7.03
2019-03-06T14:03:23.221Z,9.40
2019-03-06T14:05:53.512Z,8.77
2019-03-06T14:08:23.653Z,9.57
2019-03-06T14:10:53.905Z,10.10
2019-03-06T14:13:25.153Z,15.40
2019-03-06T14:15:59.861Z,13.10
2019-03-06T14:18:30.693Z,10.10
2019-03-06T14:21:01.270Z,12.73
2019-03-06T14:23:35.139Z,8.50
2019-03-06T14:26:07.856Z,9.63
2019-03-06T14:28:37.963Z,9.20
2019-03-06T14:31:10.532Z,8.83
2019-03-06T14:33:40.871Z,8.10
2019-03-06T14:36:11.838Z,8.27
2019-03-06T14:38:42.129Z,8.30
2019-03-06T14:41:12.276Z,9.47
2019-03-06T14:43:43.530Z,8.00
2019-03-06T14:46:16.606Z,7.90
2019-03-06T14:48:45.384Z,8.67
2019-03-06T14:51:15.512Z,9.27
2019-03-06T14:53:46.253Z,9.07
2019-03-06T14:56:16.369Z,11.07
2019-03-06T14:58:46.661Z,8.87
2019-03-06T15:01:17.689Z,10.67
2019-03-06T15:03:47.685Z,13.07
2019-03-06T15:06:18.014Z,15.57
2019-03-06T15:08:48.485Z,10.13
2019-03-06T15:11:18.608Z,10.20
2019-03-06T15:13:48.724Z,9.80
2019-03-06T15:16:18.976Z,10.37
2019-03-06T15:18:49.157Z,8.70
2019-03-06T15:21:19.341Z,10.00
2019-03-06T15:23:49.401Z,12.80
2019-03-06T15:26:19.601Z,13.50
2019-03-06T15:28:49.737Z,12.30
2019-03-06T15:31:19.797Z,13.57
2019-03-06T15:33:49.908Z,14.00
2019-03-06T15:36:20.516Z,13.83
2019-03-06T15:38:53.173Z,10.30
2019-03-06T15:41:23.245Z,11.67
2019-03-06T15:43:53.329Z,10.67
2019-03-06T15:46:23.564Z,9.97
2019-03-06T15:48:54.080Z,12.80
2019-03-06T15:51:24.420Z,10.50
2019-03-06T15:53:56.496Z,9.90
2019-03-06T15:56:29.867Z,9.10
2019-03-06T15:59:00.531Z,9.63
2019-03-06T16:01:30.692Z,9.30
2019-03-06T16:04:00.726Z,9.23
2019-03-06T16:06:30.836Z,10.20
2019-03-06T16:09:01.016Z,10.47
2019-03-06T16:11:31.380Z,10.43
2019-03-06T16:14:01.851Z,11.87
2019-03-06T16:16:32.825Z,10.80
2019-03-06T16:19:02.980Z,11.87
2019-03-06T16:21:34.214Z,9.80
2019-03-06T16:24:04.898Z,9.33
2019-03-06T16:26:34.885Z,10.50
2019-03-06T16:29:05.706Z,8.20
2019-03-06T16:31:36.013Z,10.50
2019-03-06T16:34:06.198Z,8.77
2019-03-06T16:36:36.234Z,9.87
2019-03-06T16:39:08.553Z,11.27
2019-03-06T16:41:40.113Z,12.10
2019-03-06T16:44:10.347Z,13.23
2019-03-06T16:46:40.349Z,10.40
2019-03-06T16:49:10.702Z,10.43
2019-03-06T16:51:41.664Z,12.63
2019-03-06T16:54:12.567Z,13.00
2019-03-06T16:56:42.530Z,10.40
2019-03-06T16:59:12.770Z,11.50
2019-03-06T17:01:42.826Z,12.63
2019-03-06T17:04:12.828Z,11.13
2019-03-06T17:06:42.851Z,12.93
2019-03-06T17:09:13.413Z,12.07
2019-03-06T17:11:44.033Z,10.40
2019-03-06T17:14:14.316Z,10.20
2019-03-06T17:16:44.354Z,10.20
2019-03-06T17:19:14.535Z,10.00
2019-03-06T17:21:44.704Z,9.60
2019-03-06T17:24:15.054Z,15.83
2019-03-06T17:26:45.111Z,13.30
2019-03-06T17:29:15.814Z,13.93
2019-03-06T17:31:46.050Z,15.43
2019-03-06T17:34:16.769Z,13.27
2019-03-06T17:36:46.793Z,13.70
2019-03-06T17:39:17.146Z,13.83
2019-03-06T17:41:47.393Z,9.27
2019-03-06T17:44:17.482Z,12.93
2019-03-06T17:46:47.464Z,12.40
2019-03-06T17:49:17.970Z,11.07
2019-03-06T17:51:48.067Z,12.87
2019-03-06T17:54:18.515Z,12.57
2019-03-06T17:56:49.068Z,11.83
2019-03-06T17:59:19.127Z,11.63
2019-03-06T18:01:49.262Z,11.57
2019-03-06T18:04:20.987Z,11.23
2019-03-06T18:06:51.061Z,11.07
2019-03-06T18:09:21.152Z,11.37
2019-03-06T18:11:51.229Z,11.70
2019-03-06T18:14:21.824Z,11.40
2019-03-06T18:16:51.910Z,10.27
2019-03-06T18:19:21.890Z,12.23
2019-03-06T18:21:52.312Z,18.10
2019-03-06T18:24:22.329Z,18.10
2019-03-06T18:26:52.620Z,14.90
2019-03-06T18:29:22.793Z,16.93
2019-03-06T18:31:52.792Z,16.07
2019-03-06T18:34:23.337Z,14.03
2019-03-06T18:36:53.513Z,14.10
2019-03-06T18:39:23.553Z,9.73
2019-03-06T18:41:53.818Z,12.20
2019-03-06T18:44:24.131Z,11.30
2019-03-06T18:46:54.120Z,14.60
2019-03-06T18:49:24.121Z,15.50
2019-03-06T18:51:54.222Z,17.37
2019-03-06T18:54:24.196Z,18.63
2019-03-06T18:56:54.524Z,22.80
2019-03-06T18:59:24.569Z,22.70
2019-03-06T19:01:54.613Z,24.37
2019-03-06T19:04:25.047Z,24.33
2019-03-06T19:06:55.541Z,20.97
2019-03-06T19:09:26.067Z,22.30
2019-03-06T19:11:56.009Z,21.90
2019-03-06T19:14:26.153Z,19.50
2019-03-06T19:16:56.181Z,19.43
2019-03-06T19:19:26.388Z,12.23
2019-03-06T19:21:56.610Z,11.47
2019-03-06T19:24:26.834Z,12.23
2019-03-06T19:26:57.173Z,12.20
2019-03-06T19:29:27.192Z,10.97
2019-03-06T19:31:57.601Z,14.53
2019-03-06T19:34:27.934Z,12.03
2019-03-06T19:36:58.304Z,9.87
2019-03-06T19:39:28.330Z,9.90
2019-03-06T19:41:58.583Z,12.23
2019-03-06T19:44:28.807Z,11.53
2019-03-06T19:46:59.014Z,9.50
2019-03-06T19:49:29.066Z,10.37
2019-03-06T19:51:59.365Z,11.00
2019-03-06T19:54:29.392Z,11.10
2019-03-06T19:56:59.481Z,12.33
2019-03-06T19:59:29.474Z,11.10
2019-03-06T20:01:59.513Z,11.37
2019-03-06T20:04:30.868Z,11.37
2019-03-06T20:07:00.918Z,11.70
2019-03-06T20:09:31.216Z,11.40
2019-03-06T20:12:01.374Z,11.60
2019-03-06T20:14:31.517Z,12.63
2019-03-06T20:17:01.524Z,13.00
2019-03-06T20:19:31.953Z,13.70
2019-03-06T20:22:02.241Z,12.67
2019-03-06T20:24:32.388Z,13.50
2019-03-06T20:27:03.040Z,13.70
2019-03-06T20:29:33.472Z,13.70
2019-03-06T20:32:03.778Z,14.70
2019-03-06T20:34:34.120Z,15.00
2019-03-06T20:37:04.299Z,13.90
2019-03-06T20:39:34.301Z,14.33
2019-03-06T20:42:04.857Z,14.97
2019-03-06T20:44:35.125Z,13.77
2019-03-06T20:47:05.177Z,14.40
2019-03-06T20:49:35.580Z,10.27
2019-03-06T20:52:06.108Z,11.03
2019-03-06T20:54:36.243Z,7.10
2019-03-06T20:57:06.841Z,9.33
2019-03-06T20:59:36.829Z,7.77
2019-03-06T21:02:06.918Z,7.67
2019-03-06T21:04:37.137Z,7.60
2019-03-06T21:07:07.414Z,6.80
2019-03-06T21:09:37.837Z,6.67
2019-03-06T21:12:07.997Z,7.73
2019-03-06T21:14:38.377Z,9.33
2019-03-06T21:17:09.555Z,9.90
2019-03-06T21:19:40.862Z,7.37
2019-03-06T21:22:11.236Z,6.00
2019-03-06T21:24:43.914Z,5.53
2019-03-06T21:27:14.107Z,4.70
2019-03-06T21:29:44.184Z,5.43
2019-03-06T21:32:14.289Z,4.90
2019-03-06T21:34:44.740Z,4.87
2019-03-06T21:37:14.804Z,4.83
2019-03-06T21:39:44.910Z,4.77
2019-03-06T21:42:15.124Z,4.40
2019-03-06T21:44:45.271Z,4.80
2019-03-06T21:47:15.582Z,4.50
2019-03-06T21:49:45.943Z,3.60
2019-03-06T21:52:16.336Z,3.67
2019-03-06T21:54:46.546Z,3.23
2019-03-06T21:57:16.718Z,2.97
2019-03-06T21:59:46.999Z,3.30
2019-03-06T22:02:18.552Z,2.90
2019-03-06T22:04:48.708Z,3.10
2019-03-06T22:07:18.884Z,3.10
2019-03-06T22:09:49.615Z,3.20
2019-03-06T22:12:19.965Z,2.60
2019-03-06T22:14:50.029Z,2.30
2019-03-06T22:17:20.337Z,2.43
2019-03-06T22:19:51.013Z,2.90
2019-03-06T22:22:21.081Z,2.67
2019-03-06T22:24:51.089Z,2.37
2019-03-06T22:27:21.066Z,2.93
2019-03-06T22:29:51.844Z,2.53
2019-03-06T22:32:21.853Z,2.40
2019-03-06T22:34:52.157Z,2.20
2019-03-06T22:37:22.310Z,2.63
2019-03-06T22:39:52.292Z,3.20
2019-03-06T22:42:22.306Z,2.80
2019-03-06T22:44:52.994Z,2.80
2019-03-06T22:47:22.968Z,2.53
2019-03-06T22:49:52.968Z,2.93
2019-03-06T22:52:23.196Z,2.60
2019-03-06T22:54:53.573Z,3.10
2019-03-06T22:57:24.100Z,2.70
2019-03-06T22:59:54.129Z,2.87
2019-03-06T23:02:25.500Z,2.23
2019-03-06T23:04:55.621Z,2.43
2019-03-06T23:07:25.652Z,2.20
2019-03-06T23:09:55.681Z,2.10
2019-03-06T23:12:25.701Z,2.30
2019-03-06T23:14:55.685Z,2.10
2019-03-06T23:17:25.745Z,1.93
2019-03-06T23:19:55.769Z,1.87
2019-03-06T23:22:25.849Z,1.30
2019-03-06T23:24:56.117Z,1.40
2019-03-06T23:27:26.172Z,1.50
2019-03-06T23:29:56.118Z,1.37
2019-03-06T23:32:26.648Z,1.40
2019-03-06T23:34:56.667Z,1.07
2019-03-06T23:37:26.886Z,1.60
2019-03-06T23:39:56.915Z,1.20
2019-03-06T23:42:27.068Z,1.20
2019-03-06T23:44:57.316Z,0.90
2019-03-06T23:47:27.337Z,1.10
2019-03-06T23:49:57.927Z,1.17
2019-03-06T23:52:33.097Z,1.07
2019-03-06T23:55:03.580Z,1.20
2019-03-06T23:57:33.592Z,1.03
